Time;durP1;ratioP1;P1;durP2;ratioP2;P2;SDS_P1;SDS_P2;PMS_P1;PMS_P2;Temp;Humidity;BMP_temperature;BMP_pressure;BME280_temperature;BME280_humidity;BME280_pressure;Samples;Min_cycle;Max_cycle;Signal;HPM_P1;HPM_P2
2022/08/06 00:01:43;;;;;;;1.80;0.60;;;11.00;78.80;;;;;;5061019;28;20068;-65
2022/08/06 00:04:08;;;;;;;2.07;0.70;;;11.00;78.70;;;;;;5028221;28;20496;-65
2022/08/06 00:06:34;;;;;;;2.60;0.70;;;10.90;78.80;;;;;;5058407;28;20044;-65
2022/08/06 00:09:00;;;;;;;3.63;0.93;;;10.90;78.60;;;;;;5046519;28;20048;-65
2022/08/06 00:11:26;;;;;;;1.00;0.60;;;10.90;79.00;;;;;;5062949;28;20044;-65
2022/08/06 00:13:51;;;;;;;3.20;0.57;;;10.80;78.90;;;;;;5062557;28;20447;-65
2022/08/06 00:16:17;;;;;;;1.50;0.73;;;10.80;78.40;;;;;;5060598;28;20602;-65
2022/08/06 00:18:43;;;;;;;2.60;0.90;;;10.80;78.50;;;;;;5062740;28;20032;-65
2022/08/06 00:21:09;;;;;;;1.13;0.70;;;10.80;79.20;;;;;;5063616;28;20044;-65
2022/08/06 00:23:35;;;;;;;2.93;0.97;;;10.70;79.20;;;;;;5047651;28;20066;-65
2022/08/06 00:26:00;;;;;;;2.20;1.00;;;10.70;79.20;;;;;;5059431;28;20040;-64
2022/08/06 00:28:26;;;;;;;4.10;0.80;;;10.70;79.10;;;;;;5064527;28;20477;-65
2022/08/06 00:30:52;;;;;;;2.20;0.50;;;10.70;78.70;;;;;;5064087;28;20036;-64
2022/08/06 00:33:18;;;;;;;2.73;0.60;;;10.70;78.90;;;;;;5056994;28;20045;-65
2022/08/06 00:35:44;;;;;;;2.07;1.13;;;10.70;79.50;;;;;;5061732;28;20048;-64
2022/08/06 00:38:10;;;;;;;1.33;0.80;;;10.70;79.70;;;;;;5062506;28;20341;-65
2022/08/06 00:40:37;;;;;;;2.40;0.80;;;10.70;79.80;;;;;;5048175;28;20048;-65
2022/08/06 00:43:04;;;;;;;1.83;0.85;;;10.70;79.90;;;;;;5047664;28;20067;-65
2022/08/06 00:45:31;;;;;;;2.10;0.82;;;10.70;79.50;;;;;;5061466;28;20051;-65
2022/08/06 00:47:57;;;;;;;2.00;0.90;;;10.60;79.60;;;;;;5063536;28;20237;-65
2022/08/06 00:50:22;;;;;;;3.20;1.00;;;10.60;79.20;;;;;;5064444;28;20563;-65
2022/08/06 00:52:48;;;;;;;4.80;0.90;;;10.60;79.50;;;;;;5062410;28;20037;-65
2022/08/06 00:55:14;;;;;;;2.60;1.00;;;10.60;79.30;;;;;;5062486;28;20063;-65
2022/08/06 00:57:39;;;;;;;1.50;0.80;;;10.60;79.30;;;;;;5047196;28;20124;-65
2022/08/06 01:00:06;;;;;;;3.47;1.10;;;10.60;79.20;;;;;;5063979;28;20052;-65
2022/08/06 01:02:32;;;;;;;0.98;0.82;;;10.60;79.50;;;;;;5046439;28;20155;-65
2022/08/06 01:04:58;;;;;;;3.73;1.00;;;10.60;79.50;;;;;;5065713;28;20164;-65
2022/08/06 01:07:23;;;;;;;3.23;0.90;;;10.50;79.40;;;;;;5067676;28;20040;-65
2022/08/06 01:09:49;;;;;;;3.63;0.73;;;10.50;79.30;;;;;;5066446;28;20123;-65
2022/08/06 01:12:16;;;;;;;3.33;1.00;;;10.50;79.10;;;;;;5067979;28;20048;-65
2022/08/06 01:14:41;;;;;;;1.02;0.70;;;10.50;79.20;;;;;;5068594;28;20063;-65
2022/08/06 01:17:13;;;;;;;2.00;0.90;;;10.60;78.90;;;;;;5067878;28;20090;-65
2022/08/06 01:19:53;;;;;;;1.23;0.88;;;10.60;78.80;;;;;;5059509;28;20080;-65
2022/08/06 01:22:56;;;;;;;2.33;0.90;;;10.60;79.30;;;;;;5062551;28;20244;-65
2022/08/06 01:25:53;;;;;;;2.50;0.80;;;10.60;81.40;;;;;;5053807;28;20044;-65
2022/08/06 01:28:28;;;;;;;1.23;0.90;;;10.60;81.50;;;;;;5065925;28;20067;-65
2022/08/06 01:31:01;;;;;;;3.25;0.90;;;10.50;81.50;;;;;;5067614;28;20072;-65
2022/08/06 01:33:32;;;;;;;2.15;1.20;;;10.50;81.00;;;;;;5080356;28;20064;-65
2022/08/06 01:36:07;;;;;;;1.73;1.05;;;10.50;81.10;;;;;;5040717;28;20072;-65
2022/08/06 01:38:44;;;;;;;1.15;0.70;;;10.40;80.50;;;;;;5067653;28;20040;-65
2022/08/06 01:41:38;;;;;;;1.25;0.80;;;10.40;80.30;;;;;;5042494;28;20048;-65
2022/08/06 01:44:02;;;;;;;2.53;0.90;;;10.40;80.30;;;;;;5067317;28;20641;-65
2022/08/06 01:46:29;;;;;;;1.30;0.90;;;10.40;80.10;;;;;;5063223;28;20086;-65
2022/08/06 01:48:57;;;;;;;1.08;0.68;;;10.40;80.70;;;;;;5049449;28;20070;-65
2022/08/06 01:51:25;;;;;;;4.05;1.30;;;10.40;81.00;;;;;;5058385;28;20044;-65
2022/08/06 01:53:52;;;;;;;2.75;1.25;;;10.40;80.60;;;;;;5066951;28;20120;-65
2022/08/06 01:56:19;;;;;;;3.90;1.30;;;10.40;81.30;;;;;;5082242;28;20068;-65
2022/08/06 01:58:47;;;;;;;2.38;1.10;;;10.40;81.20;;;;;;5050207;28;20048;-65
2022/08/06 02:01:15;;;;;;;2.53;1.42;;;10.40;81.80;;;;;;5067232;28;20048;-65
2022/08/06 02:03:47;;;;;;;3.50;1.65;;;10.40;81.70;;;;;;5066581;28;20043;-65
2022/08/06 02:06:19;;;;;;;2.17;0.80;;;10.40;81.80;;;;;;5083762;28;20040;-65
2022/08/06 02:08:47;;;;;;;2.38;1.02;;;10.30;81.20;;;;;;5067378;28;20067;-65
2022/08/06 02:11:13;;;;;;;3.40;1.25;;;10.30;81.30;;;;;;5066962;28;20072;-65
2022/08/06 02:13:41;;;;;;;2.70;1.10;;;10.30;81.20;;;;;;5067096;28;20519;-65
2022/08/06 02:16:11;;;;;;;1.73;1.30;;;10.30;81.90;;;;;;5066271;28;20048;-65
2022/08/06 02:18:41;;;;;;;3.55;1.40;;;10.20;81.80;;;;;;5066808;28;20044;-65
2022/08/06 02:21:12;;;;;;;3.50;1.15;;;10.20;81.60;;;;;;5066983;28;20070;-65
2022/08/06 02:23:39;;;;;;;2.60;1.40;;;10.20;81.40;;;;;;5066730;28;20084;-65
2022/08/06 02:26:05;;;;;;;1.40;0.90;;;10.20;81.40;;;;;;5067482;28;20044;-65
2022/08/06 02:28:34;;;;;;;1.60;1.15;;;10.10;81.50;;;;;;5066134;28;20226;-65
2022/08/06 02:31:00;;;;;;;2.63;1.20;;;10.10;81.90;;;;;;5070410;28;20048;-65
2022/08/06 02:33:27;;;;;;;2.17;1.23;;;10.10;81.90;;;;;;5066993;28;20052;-65
2022/08/06 02:36:04;;;;;;;2.28;1.33;;;10.10;82.50;;;;;;5066404;28;20041;-65
2022/08/06 02:38:58;;;;;;;1.85;1.30;;;10.10;82.00;;;;;;5066117;28;20037;-65
2022/08/06 02:41:43;;;;;;;2.65;1.38;;;10.10;81.70;;;;;;5065400;28;20115;-65
2022/08/06 02:44:15;;;;;;;3.17;1.58;;;10.10;81.50;;;;;;5066149;28;20046;-66
2022/08/06 02:46:49;;;;;;;2.53;1.33;;;10.10;81.50;;;;;;5083718;28;20047;-66
2022/08/06 02:49:21;;;;;;;2.33;1.23;;;10.10;81.40;;;;;;5065952;28;20056;-66
2022/08/06 02:52:04;;;;;;;3.92;1.65;;;10.10;81.40;;;;;;5054432;28;20039;-66
2022/08/06 02:54:56;;;;;;;3.13;1.40;;;10.10;82.00;;;;;;5064102;28;20071;-66
2022/08/06 02:57:27;;;;;;;3.53;1.45;;;10.10;82.00;;;;;;5064207;28;20046;-66
2022/08/06 02:59:57;;;;;;;3.58;1.55;;;10.10;81.90;;;;;;5065770;28;20040;-65
2022/08/06 03:02:26;;;;;;;2.53;1.70;;;10.10;82.00;;;;;;5066365;28;20044;-66
2022/08/06 03:04:55;;;;;;;2.25;1.58;;;10.20;82.10;;;;;;5065805;28;20040;-66
2022/08/06 03:07:26;;;;;;;2.33;1.60;;;10.30;82.40;;;;;;5065553;28;20044;-66
2022/08/06 03:09:53;;;;;;;2.72;1.50;;;10.30;82.50;;;;;;5079308;28;20032;-66
2022/08/06 03:12:20;;;;;;;2.00;1.70;;;10.40;82.90;;;;;;5066122;28;20036;-66
2022/08/06 03:14:48;;;;;;;2.72;1.98;;;10.50;83.20;;;;;;5066111;28;20044;-66
2022/08/06 03:17:16;;;;;;;2.15;1.67;;;10.50;83.40;;;;;;5065326;28;20083;-66
2022/08/06 03:19:44;;;;;;;2.42;1.38;;;10.60;84.20;;;;;;5062799;28;20074;-66
2022/08/06 03:22:11;;;;;;;3.78;1.38;;;10.70;83.40;;;;;;5065983;28;20445;-66
2022/08/06 03:24:38;;;;;;;3.53;1.30;;;10.80;83.50;;;;;;5064923;28;20117;-66
2022/08/06 03:27:04;;;;;;;1.65;1.20;;;10.90;83.40;;;;;;5065806;28;20040;-66
2022/08/06 03:29:32;;;;;;;2.60;1.45;;;11.00;83.20;;;;;;5064988;28;20044;-66
2022/08/06 03:31:59;;;;;;;1.67;1.30;;;11.10;83.00;;;;;;5082573;28;20056;-66
2022/08/06 03:34:30;;;;;;;1.70;1.13;;;11.20;83.10;;;;;;5048449;28;20048;-66
2022/08/06 03:36:57;;;;;;;2.63;1.40;;;11.30;83.00;;;;;;5032441;28;20036;-66
2022/08/06 03:39:25;;;;;;;5.40;1.67;;;11.30;83.00;;;;;;5065243;28;20119;-66
2022/08/06 03:41:52;;;;;;;2.55;0.95;;;11.30;82.50;;;;;;5065053;28;20098;-66
2022/08/06 03:44:19;;;;;;;2.03;1.08;;;11.30;82.40;;;;;;5065396;28;20102;-66
2022/08/06 03:47:06;;;;;;;2.33;0.85;;;11.30;82.20;;;;;;5065854;28;20082;-66
2022/08/06 03:49:37;;;;;;;3.10;0.90;;;11.30;81.90;;;;;;5043781;28;20135;-63
2022/08/06 03:52:05;;;;;;;1.60;1.10;;;11.20;82.10;;;;;;5066897;28;20070;-63
2022/08/06 03:54:38;;;;;;;2.63;1.13;;;11.20;81.90;;;;;;5064845;28;20386;-63
2022/08/06 03:57:09;;;;;;;2.47;1.10;;;11.20;82.00;;;;;;5062320;28;20040;-63
2022/08/06 03:59:38;;;;;;;2.08;1.08;;;11.10;82.00;;;;;;5071908;28;20060;-63
2022/08/06 04:02:05;;;;;;;3.10;1.00;;;11.10;81.90;;;;;;5077812;28;20123;-63
2022/08/06 04:04:33;;;;;;;2.75;0.90;;;11.10;81.80;;;;;;5048334;28;20059;-63
2022/08/06 04:07:01;;;;;;;2.15;1.35;;;11.10;81.70;;;;;;5064619;28;20074;-63
2022/08/06 04:09:29;;;;;;;3.38;1.20;;;11.10;81.80;;;;;;5061226;28;20549;-63
2022/08/06 04:11:55;;;;;;;1.88;1.20;;;11.10;82.10;;;;;;5060184;28;20048;-63
2022/08/06 04:14:22;;;;;;;2.60;1.10;;;11.10;82.10;;;;;;5078538;28;20043;-63
2022/08/06 04:16:49;;;;;;;3.05;1.00;;;11.10;82.30;;;;;;5048512;28;20036;-63
2022/08/06 04:19:18;;;;;;;1.52;0.90;;;11.10;82.50;;;;;;5048824;28;20530;-63
2022/08/06 04:21:47;;;;;;;3.13;1.10;;;11.10;82.90;;;;;;5065012;28;20058;-63
2022/08/06 04:24:14;;;;;;;4.60;0.90;;;11.10;82.70;;;;;;5048221;28;20617;-63
2022/08/06 04:26:42;;;;;;;2.58;1.10;;;11.10;82.80;;;;;;5065233;28;20040;-63
2022/08/06 04:29:12;;;;;;;2.75;1.17;;;11.10;82.90;;;;;;5064859;28;20043;-63
2022/08/06 04:31:39;;;;;;;4.22;1.30;;;11.00;83.00;;;;;;5064986;28;20568;-63
2022/08/06 04:34:05;;;;;;;3.80;1.38;;;11.00;83.90;;;;;;5064133;28;20087;-64
2022/08/06 04:36:32;;;;;;;2.20;0.90;;;11.00;83.80;;;;;;5064535;28;20044;-63
2022/08/06 04:38:58;;;;;;;1.70;1.02;;;11.00;84.40;;;;;;5080985;28;20036;-63
2022/08/06 04:41:24;;;;;;;1.85;1.48;;;11.00;83.90;;;;;;5064626;28;20041;-63
2022/08/06 04:43:51;;;;;;;3.90;1.35;;;11.00;84.00;;;;;;5064289;28;20692;-63
2022/08/06 04:46:17;;;;;;;3.15;1.50;;;11.00;84.60;;;;;;5030905;28;20071;-63
2022/08/06 04:48:43;;;;;;;3.30;1.52;;;11.00;84.80;;;;;;5064997;28;20122;-66
2022/08/06 04:51:11;;;;;;;2.53;1.23;;;11.00;85.80;;;;;;5082419;28;20032;-66
2022/08/06 04:53:38;;;;;;;3.08;1.33;;;11.00;85.40;;;;;;5064142;28;20036;-66
2022/08/06 04:56:08;;;;;;;2.60;1.52;;;11.10;85.50;;;;;;5047872;28;20577;-66
2022/08/06 04:58:35;;;;;;;1.77;1.30;;;11.10;85.10;;;;;;5063042;28;20043;-66
2022/08/06 05:01:01;;;;;;;4.53;1.13;;;11.20;85.30;;;;;;5081228;28;20131;-66
2022/08/06 05:03:28;;;;;;;3.28;1.48;;;11.30;85.30;;;;;;5063918;28;20041;-66
2022/08/06 05:06:22;;;;;;;2.50;1.50;;;11.50;85.80;;;;;;5058722;28;20079;-66
2022/08/06 05:08:53;;;;;;;2.97;1.25;;;11.60;85.50;;;;;;5061597;28;20059;-66
2022/08/06 05:11:31;;;;;;;3.33;1.20;;;11.80;85.20;;;;;;5063845;28;20043;-66
2022/08/06 05:14:04;;;;;;;2.80;1.03;;;11.90;84.70;;;;;;5064307;28;20045;-66
2022/08/06 05:16:34;;;;;;;2.83;0.90;;;12.00;84.50;;;;;;5064470;28;20286;-66
2022/08/06 05:19:05;;;;;;;1.83;0.77;;;12.00;84.20;;;;;;5063845;28;20289;-66
2022/08/06 05:21:35;;;;;;;1.97;0.87;;;12.10;84.00;;;;;;5063742;28;20390;-64
2022/08/06 05:24:03;;;;;;;1.63;0.67;;;12.10;83.80;;;;;;5060145;28;20377;-64
2022/08/06 05:26:29;;;;;;;2.87;0.83;;;12.10;83.80;;;;;;5063922;28;20334;-64
2022/08/06 05:28:55;;;;;;;2.03;1.03;;;12.20;83.80;;;;;;5047051;28;20344;-64
2022/08/06 05:31:31;;;;;;;2.70;0.60;;;12.30;83.80;;;;;;5047663;28;20295;-64
2022/08/06 05:33:57;;;;;;;2.23;0.73;;;12.50;84.00;;;;;;5064193;28;20128;-64
2022/08/06 05:36:23;;;;;;;1.37;0.70;;;12.70;83.90;;;;;;5064853;28;20263;-64
2022/08/06 05:38:49;;;;;;;1.67;0.83;;;12.90;83.50;;;;;;5045905;28;20295;-64
2022/08/06 05:41:14;;;;;;;2.00;0.60;;;13.10;83.10;;;;;;5060977;28;20036;-64
2022/08/06 05:43:40;;;;;;;2.17;0.60;;;13.20;82.70;;;;;;5031020;28;20127;-64
2022/08/06 05:46:18;;;;;;;2.67;0.63;;;13.30;82.40;;;;;;5064848;28;20036;-64
2022/08/06 05:48:53;;;;;;;2.37;0.50;;;13.40;82.20;;;;;;5064131;28;20127;-64
2022/08/06 05:51:28;;;;;;;2.22;0.50;;;13.50;81.60;;;;;;5068830;28;20958;-64
2022/08/06 05:54:05;;;;;;;3.07;0.40;;;13.50;81.20;;;;;;5063422;28;20033;-64
2022/08/06 05:56:42;;;;;;;1.20;0.60;;;13.50;81.00;;;;;;5066913;28;20287;-64
2022/08/06 05:59:18;;;;;;;3.20;0.73;;;13.50;80.70;;;;;;5068027;28;20279;-64
2022/08/06 06:01:45;;;;;;;1.30;0.60;;;13.50;80.70;;;;;;5065070;28;20404;-64
2022/08/06 06:04:12;;;;;;;2.77;0.63;;;13.60;79.80;;;;;;5066488;28;20628;-64
2022/08/06 06:06:38;;;;;;;1.60;0.50;;;13.70;79.80;;;;;;5066835;28;20325;-64
2022/08/06 06:09:05;;;;;;;4.13;0.90;;;13.90;79.90;;;;;;5051084;28;20282;-64
2022/08/06 06:11:31;;;;;;;3.80;0.50;;;14.00;79.40;;;;;;5064395;28;20289;-64
2022/08/06 06:13:57;;;;;;;2.10;0.33;;;14.20;78.70;;;;;;5067484;28;20283;-64
2022/08/06 06:16:29;;;;;;;3.77;0.30;;;14.30;79.10;;;;;;5067398;28;20286;-64
2022/08/06 06:19:23;;;;;;;3.93;0.43;;;14.50;79.40;;;;;;5067633;28;20429;-64
2022/08/06 06:22:27;;;;;;;2.67;0.60;;;14.70;78.50;;;;;;5048216;28;20320;-64
2022/08/06 06:25:04;;;;;;;1.83;0.50;;;14.90;78.90;;;;;;5063528;28;20844;-64
2022/08/06 06:27:45;;;;;;;1.37;0.40;;;15.10;78.10;;;;;;5055022;28;20647;-64
2022/08/06 06:30:22;;;;;;;2.30;0.43;;;15.30;77.60;;;;;;5067453;28;20298;-64
2022/08/06 06:33:19;;;;;;;2.93;1.03;;;15.50;76.20;;;;;;5077662;28;20800;-64
2022/08/06 06:36:02;;;;;;;1.53;0.70;;;15.90;75.70;;;;;;5079156;28;20358;-64
2022/08/06 06:38:49;;;;;;;4.60;0.63;;;16.30;74.60;;;;;;5066731;28;20294;-64
2022/08/06 06:41:29;;;;;;;3.60;0.63;;;16.80;73.30;;;;;;5063595;28;20286;-64
2022/08/06 06:44:18;;;;;;;3.83;0.50;;;17.70;71.30;;;;;;5065965;28;20283;-64
2022/08/06 06:46:58;;;;;;;2.43;0.50;;;18.80;67.90;;;;;;5055520;28;20312;-64
2022/08/06 06:49:31;;;;;;;3.30;0.50;;;19.50;65.10;;;;;;5061787;28;20283;-64
2022/08/06 06:52:05;;;;;;;2.17;0.60;;;19.80;63.60;;;;;;5058186;28;20294;-64
2022/08/06 06:54:39;;;;;;;5.27;0.90;;;20.30;62.90;;;;;;5054561;28;20274;-64
2022/08/06 06:57:09;;;;;;;2.83;0.90;;;20.60;62.20;;;;;;5041278;28;20287;-64
2022/08/06 06:59:38;;;;;;;1.77;0.70;;;20.80;60.90;;;;;;5049659;28;20103;-64
2022/08/06 07:02:06;;;;;;;2.53;0.63;;;20.90;60.80;;;;;;5082244;28;20368;-64
2022/08/06 07:04:35;;;;;;;2.37;0.77;;;21.00;60.50;;;;;;5054415;28;20301;-64
2022/08/06 07:07:03;;;;;;;4.03;0.90;;;20.90;60.50;;;;;;5066669;28;20889;-64
2022/08/06 07:09:32;;;;;;;2.73;0.70;;;20.40;61.20;;;;;;5045401;28;20789;-64
2022/08/06 07:12:00;;;;;;;4.90;0.90;;;19.70;62.00;;;;;;5063847;28;20328;-64
2022/08/06 07:14:29;;;;;;;3.17;0.70;;;19.20;63.90;;;;;;5065569;28;20282;-64
2022/08/06 07:16:56;;;;;;;3.67;1.00;;;18.80;65.30;;;;;;5061814;28;20283;-64
2022/08/06 07:19:24;;;;;;;2.73;1.00;;;18.50;65.80;;;;;;5049702;28;20366;-64
2022/08/06 07:21:50;;;;;;;4.33;1.03;;;18.30;66.50;;;;;;5065666;28;20674;-64
2022/08/06 07:24:17;;;;;;;3.47;0.80;;;18.20;65.80;;;;;;5046981;28;20378;-64
2022/08/06 07:26:48;;;;;;;3.50;1.07;;;18.10;66.10;;;;;;5058608;28;20302;-64
2022/08/06 07:29:15;;;;;;;3.57;0.93;;;18.10;66.60;;;;;;5065986;28;20295;-64
2022/08/06 07:31:41;;;;;;;1.93;0.87;;;18.10;66.10;;;;;;5055737;28;20276;-64
2022/08/06 07:34:07;;;;;;;4.43;1.27;;;18.10;65.80;;;;;;5063382;28;20651;-64
2022/08/06 07:36:39;;;;;;;2.33;0.87;;;18.10;65.50;;;;;;5054265;28;20287;-64
2022/08/06 07:39:13;;;;;;;2.27;0.90;;;18.20;65.40;;;;;;5070587;28;20045;-64
2022/08/06 07:41:39;;;;;;;3.00;1.13;;;18.20;64.80;;;;;;5044798;28;20298;-64
2022/08/06 07:44:08;;;;;;;3.40;1.07;;;18.30;63.40;;;;;;5066164;28;20457;-64
2022/08/06 07:46:39;;;;;;;2.83;0.90;;;18.30;63.00;;;;;;5065947;28;20819;-64
2022/08/06 07:49:07;;;;;;;2.97;0.87;;;18.40;62.80;;;;;;5049760;28;20737;-64
2022/08/06 07:51:40;;;;;;;2.33;0.90;;;18.40;61.80;;;;;;5047466;28;20275;-64
2022/08/06 07:54:07;;;;;;;2.87;1.00;;;18.50;62.30;;;;;;5069029;28;20362;-64
2022/08/06 07:56:35;;;;;;;3.40;0.80;;;18.70;61.90;;;;;;5058657;28;20751;-64
2022/08/06 07:59:03;;;;;;;2.83;0.83;;;18.80;61.00;;;;;;5054340;28;20331;-65
2022/08/06 08:01:31;;;;;;;4.80;1.23;;;19.00;60.60;;;;;;5054503;28;20314;-64
2022/08/06 08:06:41;;;;;;;3.45;0.82;;;19.30;60.10;;;;;;5066159;28;20750;-65
2022/08/06 08:09:09;;;;;;;3.20;1.03;;;19.50;59.30;;;;;;5041634;28;20033;-65
2022/08/06 08:11:40;;;;;;;4.43;1.03;;;19.60;59.30;;;;;;5041708;28;20395;-65
2022/08/06 08:14:09;;;;;;;3.83;1.00;;;19.70;58.90;;;;;;5055014;28;20341;-65
2022/08/06 08:16:35;;;;;;;3.07;1.07;;;19.90;58.50;;;;;;5056591;28;20059;-65
2022/08/06 08:19:01;;;;;;;2.83;0.93;;;20.00;57.80;;;;;;5064318;28;20102;-65
2022/08/06 08:21:28;;;;;;;2.90;1.10;;;19.90;57.20;;;;;;5061908;28;20071;-65
2022/08/06 08:23:56;;;;;;;2.73;1.00;;;19.70;57.50;;;;;;5053914;28;20041;-64
2022/08/06 08:26:21;;;;;;;2.90;1.20;;;19.30;58.00;;;;;;5030351;28;20548;-64
2022/08/06 08:28:47;;;;;;;4.23;1.07;;;19.20;58.70;;;;;;5072273;28;20048;-64
2022/08/06 08:31:13;;;;;;;4.73;0.93;;;19.30;58.80;;;;;;5060923;28;20051;-64
2022/08/06 08:33:40;;;;;;;3.00;1.00;;;19.40;56.90;;;;;;5058416;28;20041;-64
2022/08/06 08:36:06;;;;;;;2.17;0.70;;;19.60;57.20;;;;;;5063229;28;20394;-65
2022/08/06 08:38:34;;;;;;;3.53;0.80;;;19.90;56.50;;;;;;5056193;28;20099;-65
2022/08/06 08:41:04;;;;;;;4.03;0.67;;;20.00;55.90;;;;;;5062147;28;20055;-64
2022/08/06 08:43:42;;;;;;;3.27;0.70;;;20.00;55.30;;;;;;5063255;28;20114;-64
2022/08/06 08:46:09;;;;;;;2.73;1.07;;;19.90;55.50;;;;;;5062483;28;20032;-64
2022/08/06 08:48:37;;;;;;;1.50;0.60;;;19.80;55.70;;;;;;5062877;28;20051;-65
2022/08/06 08:51:04;;;;;;;1.53;1.03;;;19.90;56.10;;;;;;5063605;28;20040;-65
2022/08/06 08:53:37;;;;;;;5.07;1.73;;;20.00;55.80;;;;;;5046364;28;20037;-64
2022/08/06 08:56:05;;;;;;;3.83;0.70;;;20.20;54.60;;;;;;5062856;28;20126;-64
2022/08/06 08:58:36;;;;;;;3.80;1.00;;;20.20;54.60;;;;;;5052232;28;20075;-65
2022/08/06 09:01:06;;;;;;;1.27;0.63;;;20.20;54.30;;;;;;5064019;28;20044;-65
2022/08/06 09:03:34;;;;;;;2.20;0.80;;;20.20;54.40;;;;;;5047867;28;20125;-64
2022/08/06 09:06:01;;;;;;;1.63;0.63;;;20.20;54.20;;;;;;5076250;28;20044;-65
2022/08/06 09:08:27;;;;;;;2.67;1.00;;;20.20;54.10;;;;;;5064228;28;20094;-65
2022/08/06 09:10:53;;;;;;;1.70;0.80;;;20.10;54.20;;;;;;5047321;28;20124;-64
2022/08/06 09:13:19;;;;;;;1.53;0.60;;;19.90;54.40;;;;;;5064150;28;20119;-64
2022/08/06 09:15:44;;;;;;;1.53;0.70;;;19.80;54.80;;;;;;5061837;28;20041;-64
2022/08/06 09:18:10;;;;;;;3.63;0.90;;;19.80;55.20;;;;;;5063666;28;20037;-64
2022/08/06 09:20:37;;;;;;;3.47;0.70;;;19.90;55.30;;;;;;5047421;28;20063;-64
2022/08/06 09:23:03;;;;;;;1.93;1.00;;;20.10;55.50;;;;;;5048780;28;20124;-67
2022/08/06 09:25:44;;;;;;;3.60;1.00;;;20.20;55.20;;;;;;5065170;28;20123;-67
2022/08/06 09:28:11;;;;;;;2.70;0.90;;;20.40;52.10;;;;;;5065161;28;20036;-67
2022/08/06 09:30:38;;;;;;;1.80;0.60;;;20.40;51.60;;;;;;5048740;28;20401;-67
2022/08/06 09:33:10;;;;;;;3.00;0.80;;;20.40;51.80;;;;;;5074526;28;20131;-67
2022/08/06 09:35:36;;;;;;;3.53;0.93;;;20.40;52.00;;;;;;5067564;28;20544;-67
2022/08/06 09:38:09;;;;;;;2.97;1.10;;;20.40;52.30;;;;;;5066854;28;20174;-67
2022/08/06 09:40:34;;;;;;;2.33;0.70;;;20.20;52.70;;;;;;5085561;28;20616;-67
2022/08/06 09:43:01;;;;;;;1.97;0.90;;;20.10;52.90;;;;;;5046750;28;20143;-67
2022/08/06 09:45:28;;;;;;;4.13;1.17;;;20.00;53.90;;;;;;5034481;28;20043;-67
2022/08/06 09:48:10;;;;;;;2.23;0.90;;;20.30;54.30;;;;;;5073058;28;20037;-67
2022/08/06 09:50:39;;;;;;;1.60;0.70;;;20.70;52.40;;;;;;5084947;28;20043;-67
2022/08/06 09:53:05;;;;;;;1.47;0.80;;;21.10;52.80;;;;;;5066857;28;20045;-67
2022/08/06 09:55:32;;;;;;;1.83;0.93;;;21.50;50.90;;;;;;5047015;28;20043;-67
2022/08/06 09:57:58;;;;;;;2.80;0.67;;;21.50;50.50;;;;;;5061964;28;20048;-67
2022/08/06 10:00:27;;;;;;;2.43;0.90;;;21.40;50.50;;;;;;5066991;28;20037;-67
2022/08/06 10:03:00;;;;;;;3.47;1.30;;;21.30;51.10;;;;;;5050132;28;20040;-67
2022/08/06 10:05:27;;;;;;;2.40;1.00;;;21.00;52.30;;;;;;5067727;28;20106;-67
2022/08/06 10:08:08;;;;;;;1.90;0.97;;;20.80;53.20;;;;;;5072963;28;20410;-67
2022/08/06 10:10:43;;;;;;;2.27;1.00;;;20.60;53.50;;;;;;5078340;28;20036;-67
2022/08/06 10:13:19;;;;;;;2.00;0.80;;;20.40;53.90;;;;;;5065777;28;20032;-67
2022/08/06 10:15:45;;;;;;;2.00;1.00;;;20.30;53.30;;;;;;5066714;28;20052;-67
2022/08/06 10:18:28;;;;;;;3.40;1.10;;;20.10;52.90;;;;;;5063021;28;20113;-67
2022/08/06 10:21:06;;;;;;;2.23;0.80;;;20.10;52.90;;;;;;5065892;28;20496;-67
2022/08/06 10:23:34;;;;;;;2.57;0.90;;;20.00;52.50;;;;;;5065111;28;20040;-67
2022/08/06 10:26:05;;;;;;;2.87;1.13;;;19.90;53.20;;;;;;5050495;28;20037;-66
2022/08/06 10:28:34;;;;;;;2.53;1.10;;;19.80;53.80;;;;;;5063816;28;20036;-66
2022/08/06 10:31:03;;;;;;;2.80;1.07;;;19.90;54.30;;;;;;5066579;28;20405;-67
2022/08/06 10:33:32;;;;;;;2.27;1.07;;;20.10;53.70;;;;;;5066431;28;20054;-66
2022/08/06 10:36:05;;;;;;;2.63;0.90;;;20.40;53.30;;;;;;5065801;28;20423;-66
2022/08/06 10:38:34;;;;;;;2.97;0.90;;;20.70;52.90;;;;;;5063931;28;20036;-66
2022/08/06 10:41:05;;;;;;;3.90;1.17;;;20.80;51.90;;;;;;5049741;28;20040;-66
2022/08/06 10:43:33;;;;;;;4.03;1.00;;;21.00;51.70;;;;;;5045813;28;20135;-67
2022/08/06 10:46:01;;;;;;;2.63;0.77;;;21.00;51.50;;;;;;5080261;28;20044;-67
2022/08/06 10:48:27;;;;;;;1.67;0.60;;;21.10;51.80;;;;;;5042915;28;20091;-67
2022/08/06 10:50:53;;;;;;;2.30;1.00;;;21.20;50.90;;;;;;5070921;28;20076;-67
2022/08/06 10:53:19;;;;;;;1.83;0.70;;;21.30;50.20;;;;;;5083032;28;20033;-67
2022/08/06 10:55:45;;;;;;;1.67;0.60;;;21.50;49.90;;;;;;5066576;28;20055;-67
2022/08/06 10:58:11;;;;;;;3.57;0.60;;;21.60;50.30;;;;;;5066606;28;20037;-67
2022/08/06 11:00:40;;;;;;;2.00;1.00;;;21.80;49.10;;;;;;5065842;28;20075;-67
2022/08/06 11:03:17;;;;;;;1.93;0.90;;;22.00;49.80;;;;;;5065784;28;20386;-67
2022/08/06 11:05:47;;;;;;;2.17;0.70;;;22.10;49.20;;;;;;5065666;28;20342;-67
2022/08/06 11:08:50;;;;;;;1.43;0.70;;;21.90;49.30;;;;;;5065069;28;20051;-67
2022/08/06 11:12:06;;;;;;;0.97;0.50;;;21.60;49.60;;;;;;5079268;28;20124;-67
2022/08/06 11:14:37;;;;;;;2.42;0.90;;;21.60;50.50;;;;;;5042111;28;20041;-67
2022/08/06 11:17:03;;;;;;;2.50;0.77;;;21.60;50.70;;;;;;5020314;28;20469;-67
2022/08/06 11:19:46;;;;;;;2.00;0.77;;;21.80;49.80;;;;;;5029913;28;20056;-67
2022/08/06 11:22:47;;;;;;;2.50;0.80;;;21.70;49.30;;;;;;5059577;28;20098;-67
2022/08/06 11:25:13;;;;;;;3.23;0.80;;;21.60;49.50;;;;;;5013003;28;20045;-67
2022/08/06 11:27:56;;;;;;;2.10;0.97;;;21.60;50.10;;;;;;5040101;28;20048;-67
2022/08/06 11:30:40;;;;;;;1.27;0.60;;;21.80;49.50;;;;;;5065097;28;20043;-67
2022/08/06 11:33:06;;;;;;;1.50;0.70;;;22.10;47.80;;;;;;5065080;28;20061;-67
2022/08/06 11:35:35;;;;;;;2.10;0.70;;;22.20;47.50;;;;;;5048489;28;20048;-67
2022/08/06 11:38:09;;;;;;;2.33;0.70;;;22.40;47.90;;;;;;5047838;28;20045;-67
2022/08/06 11:40:56;;;;;;;2.23;0.97;;;22.50;48.40;;;;;;5056643;28;20040;-67
2022/08/06 11:43:40;;;;;;;1.57;0.77;;;22.60;47.90;;;;;;5078136;28;20075;-67
2022/08/06 11:46:25;;;;;;;3.50;0.90;;;22.80;47.90;;;;;;5061924;28;20083;-67
2022/08/06 11:49:00;;;;;;;1.38;0.70;;;22.80;46.90;;;;;;5061239;28;20122;-67
2022/08/06 11:51:39;;;;;;;;;;;22.60;47.20;;;;;;5064291;28;20129;-67
2022/08/06 11:54:11;;;;;;;1.93;0.93;;;22.50;47.30;;;;;;5080684;28;19982;-67
2022/08/06 11:57:04;;;;;;;4.57;1.37;;;22.30;47.50;;;;;;5040834;28;20048;-67
2022/08/06 11:59:35;;;;;;;2.20;0.90;;;22.40;47.30;;;;;;5039757;28;20053;-67
2022/08/06 12:02:12;;;;;;;2.47;1.30;;;22.30;47.30;;;;;;5049942;28;20544;-67
2022/08/06 12:04:38;;;;;;;1.73;0.97;;;22.40;47.10;;;;;;5061562;28;20046;-67
2022/08/06 12:07:30;;;;;;;1.83;1.23;;;22.50;46.90;;;;;;5063663;28;20048;-67
2022/08/06 12:10:05;;;;;;;2.70;1.00;;;22.60;46.10;;;;;;5061566;28;20044;-67
2022/08/06 12:12:50;;;;;;;2.60;0.90;;;22.60;45.70;;;;;;5045471;28;20036;-67
2022/08/06 12:15:16;;;;;;;;;;;22.60;45.10;;;;;;5064312;28;20059;-67
2022/08/06 12:17:54;;;;;;;1.80;1.17;;;22.70;45.60;;;;;;5062733;28;19916;-67
2022/08/06 12:20:37;;;;;;;1.80;1.30;;;22.80;46.20;;;;;;5063272;28;20453;-67
2022/08/06 12:23:13;;;;;;;1.30;0.90;;;23.00;46.70;;;;;;5074790;28;20040;-67
2022/08/06 12:25:41;;;;;;;3.80;0.97;;;23.20;47.30;;;;;;5045705;28;20328;-67
2022/08/06 12:28:10;;;;;;;1.27;1.03;;;23.30;45.70;;;;;;5032979;28;20045;-67
2022/08/06 12:30:42;;;;;;;1.67;1.10;;;23.20;45.60;;;;;;5061740;28;20109;-67
2022/08/06 12:33:09;;;;;;;1.73;0.80;;;23.10;45.70;;;;;;5060192;28;20060;-67
2022/08/06 12:35:36;;;;;;;1.70;1.10;;;23.10;46.10;;;;;;5042229;28;20037;-67
2022/08/06 12:38:02;;;;;;;1.63;1.10;;;23.30;46.20;;;;;;5045325;28;20398;-67
2022/08/06 12:40:28;;;;;;;2.33;1.20;;;23.40;46.10;;;;;;5045784;28;20032;-67
2022/08/06 12:43:08;;;;;;;3.33;1.33;;;23.60;45.60;;;;;;5045591;28;20096;-67
2022/08/06 12:45:34;;;;;;;2.37;1.20;;;23.60;45.20;;;;;;5072315;28;20040;-67
2022/08/06 12:48:05;;;;;;;2.37;1.37;;;23.50;45.40;;;;;;5044827;28;20397;-67
2022/08/06 12:50:34;;;;;;;1.80;1.17;;;23.40;44.50;;;;;;5063314;28;20033;-67
2022/08/06 12:53:14;;;;;;;1.97;1.20;;;23.30;44.60;;;;;;5062631;28;20555;-67
2022/08/06 12:55:49;;;;;;;1.80;1.10;;;23.30;44.80;;;;;;5043342;28;20044;-67
2022/08/06 12:58:16;;;;;;;;;;;23.40;45.10;;;;;;5061718;28;21430;-67
2022/08/06 13:00:45;;;;;;;2.50;1.47;;;23.50;44.60;;;;;;5064834;28;19916;-67
2022/08/06 13:03:13;;;;;;;1.73;0.97;;;23.60;44.40;;;;;;5061141;28;20035;-67
2022/08/06 13:05:40;;;;;;;2.37;1.30;;;23.40;43.90;;;;;;5064577;28;20477;-67
2022/08/06 13:08:06;;;;;;;1.70;1.20;;;23.40;44.80;;;;;;5050638;28;20095;-67
2022/08/06 13:10:32;;;;;;;2.10;1.20;;;23.40;43.60;;;;;;5066206;28;20043;-67